sensor_id;sensor_type;location;lat;lon;timestamp;P1;durP1;ratioP1;P2;durP2;ratioP2
18881;SDS011;9573;50.948;11.600;2023-03-12T00:00:43;16.63;;;5.67;;
18881;SDS011;9573;50.948;11.600;2023-03-12T00:03:10;20.33;;;5.20;;
18881;SDS011;9573;50.948;11.600;2023-03-12T00:05:37;17.83;;;5.17;;
18881;SDS011;9573;50.948;11.600;2023-03-12T00:08:05;19.40;;;5.60;;
18881;SDS011;9573;50.948;11.600;2023-03-12T00:10:34;19.43;;;5.60;;
18881;SDS011;9573;50.948;11.600;2023-03-12T00:13:03;23.77;;;5.70;;
18881;SDS011;9573;50.948;11.600;2023-03-12T00:15:31;14.57;;;5.20;;
18881;SDS011;9573;50.948;11.600;2023-03-12T00:18:01;19.53;;;5.70;;
18881;SDS011;9573;50.948;11.600;2023-03-12T00:20:28;16.00;;;4.80;;
18881;SDS011;9573;50.948;11.600;2023-03-12T00:22:56;21.10;;;5.30;;
18881;SDS011;9573;50.948;11.600;2023-03-12T00:25:23;19.00;;;4.90;;
18881;SDS011;9573;50.948;11.600;2023-03-12T00:27:51;16.60;;;4.93;;
18881;SDS011;9573;50.948;11.600;2023-03-12T00:30:18;18.33;;;5.33;;
18881;SDS011;9573;50.948;11.600;2023-03-12T00:32:45;18.30;;;5.27;;
18881;SDS011;9573;50.948;11.600;2023-03-12T00:35:13;18.37;;;5.17;;
18881;SDS011;9573;50.948;11.600;2023-03-12T00:37:40;18.33;;;5.07;;
18881;SDS011;9573;50.948;11.600;2023-03-12T00:40:08;15.60;;;4.73;;
18881;SDS011;9573;50.948;11.600;2023-03-12T00:42:37;13.20;;;4.77;;
18881;SDS011;9573;50.948;11.600;2023-03-12T00:45:06;15.77;;;4.57;;
18881;SDS011;9573;50.948;11.600;2023-03-12T00:47:34;14.70;;;4.83;;
18881;SDS011;9573;50.948;11.600;2023-03-12T00:50:01;18.77;;;5.00;;
18881;SDS011;9573;50.948;11.600;2023-03-12T00:52:29;17.23;;;4.90;;
18881;SDS011;9573;50.948;11.600;2023-03-12T00:54:56;19.63;;;4.70;;
18881;SDS011;9573;50.948;11.600;2023-03-12T00:57:23;12.90;;;3.83;;
18881;SDS011;9573;50.948;11.600;2023-03-12T00:59:51;14.13;;;4.77;;
18881;SDS011;9573;50.948;11.600;2023-03-12T01:02:19;16.77;;;4.77;;
18881;SDS011;9573;50.948;11.600;2023-03-12T01:04:46;16.93;;;4.47;;
18881;SDS011;9573;50.948;11.600;2023-03-12T01:07:13;16.37;;;4.77;;
18881;SDS011;9573;50.948;11.600;2023-03-12T01:09:40;15.63;;;4.73;;
18881;SDS011;9573;50.948;11.600;2023-03-12T01:12:07;16.83;;;5.33;;
18881;SDS011;9573;50.948;11.600;2023-03-12T01:14:35;17.50;;;4.70;;
18881;SDS011;9573;50.948;11.600;2023-03-12T01:17:02;19.73;;;5.23;;
18881;SDS011;9573;50.948;11.600;2023-03-12T01:19:30;18.63;;;5.20;;
18881;SDS011;9573;50.948;11.600;2023-03-12T01:21:57;16.07;;;4.73;;
18881;SDS011;9573;50.948;11.600;2023-03-12T01:24:24;20.23;;;5.20;;
18881;SDS011;9573;50.948;11.600;2023-03-12T01:26:52;15.77;;;4.47;;
18881;SDS011;9573;50.948;11.600;2023-03-12T01:29:19;15.23;;;4.67;;
18881;SDS011;9573;50.948;11.600;2023-03-12T01:31:46;20.40;;;5.23;;
18881;SDS011;9573;50.948;11.600;2023-03-12T01:34:13;15.83;;;4.90;;
18881;SDS011;9573;50.948;11.600;2023-03-12T01:36:42;18.63;;;4.80;;
18881;SDS011;9573;50.948;11.600;2023-03-12T01:39:11;15.63;;;4.77;;
18881;SDS011;9573;50.948;11.600;2023-03-12T01:41:40;19.00;;;4.60;;
18881;SDS011;9573;50.948;11.600;2023-03-12T01:44:10;23.77;;;5.80;;
18881;SDS011;9573;50.948;11.600;2023-03-12T01:46:39;18.50;;;5.23;;
18881;SDS011;9573;50.948;11.600;2023-03-12T01:49:08;15.47;;;4.67;;
18881;SDS011;9573;50.948;11.600;2023-03-12T01:51:39;20.93;;;5.70;;
18881;SDS011;9573;50.948;11.600;2023-03-12T01:54:12;15.60;;;4.90;;
18881;SDS011;9573;50.948;11.600;2023-03-12T01:56:43;19.67;;;5.50;;
18881;SDS011;9573;50.948;11.600;2023-03-12T01:59:13;20.93;;;6.23;;
18881;SDS011;9573;50.948;11.600;2023-03-12T02:01:44;22.37;;;6.20;;
18881;SDS011;9573;50.948;11.600;2023-03-12T02:04:13;22.20;;;5.93;;
18881;SDS011;9573;50.948;11.600;2023-03-12T02:06:47;18.87;;;6.27;;
18881;SDS011;9573;50.948;11.600;2023-03-12T02:09:18;21.03;;;6.30;;
18881;SDS011;9573;50.948;11.600;2023-03-12T02:11:47;25.47;;;7.10;;
18881;SDS011;9573;50.948;11.600;2023-03-12T02:14:14;22.17;;;6.93;;
18881;SDS011;9573;50.948;11.600;2023-03-12T02:16:42;19.07;;;6.73;;
18881;SDS011;9573;50.948;11.600;2023-03-12T02:19:11;23.87;;;7.57;;
18881;SDS011;9573;50.948;11.600;2023-03-12T02:21:47;21.77;;;6.47;;
18881;SDS011;9573;50.948;11.600;2023-03-12T02:24:16;21.37;;;6.80;;
18881;SDS011;9573;50.948;11.600;2023-03-12T02:26:54;20.57;;;6.50;;
18881;SDS011;9573;50.948;11.600;2023-03-12T02:29:22;19.30;;;6.67;;
18881;SDS011;9573;50.948;11.600;2023-03-12T02:31:51;23.27;;;6.80;;
18881;SDS011;9573;50.948;11.600;2023-03-12T02:34:20;19.87;;;6.27;;
18881;SDS011;9573;50.948;11.600;2023-03-12T02:36:48;23.67;;;6.47;;
18881;SDS011;9573;50.948;11.600;2023-03-12T02:39:15;21.77;;;6.60;;
18881;SDS011;9573;50.948;11.600;2023-03-12T02:41:43;23.33;;;6.90;;
18881;SDS011;9573;50.948;11.600;2023-03-12T02:44:16;20.93;;;6.27;;
18881;SDS011;9573;50.948;11.600;2023-03-12T02:46:47;20.70;;;6.23;;
18881;SDS011;9573;50.948;11.600;2023-03-12T02:49:17;22.73;;;6.43;;
18881;SDS011;9573;50.948;11.600;2023-03-12T02:51:46;21.10;;;6.67;;
18881;SDS011;9573;50.948;11.600;2023-03-12T02:54:14;25.53;;;6.50;;
18881;SDS011;9573;50.948;11.600;2023-03-12T02:56:43;19.27;;;6.03;;
18881;SDS011;9573;50.948;11.600;2023-03-12T02:59:11;19.87;;;6.47;;
18881;SDS011;9573;50.948;11.600;2023-03-12T03:01:41;21.57;;;6.50;;
18881;SDS011;9573;50.948;11.600;2023-03-12T03:04:08;22.90;;;6.37;;
18881;SDS011;9573;50.948;11.600;2023-03-12T03:06:38;19.57;;;6.20;;
18881;SDS011;9573;50.948;11.600;2023-03-12T03:09:06;19.13;;;5.73;;
18881;SDS011;9573;50.948;11.600;2023-03-12T03:11:34;26.63;;;6.67;;
18881;SDS011;9573;50.948;11.600;2023-03-12T03:14:01;19.43;;;6.13;;
18881;SDS011;9573;50.948;11.600;2023-03-12T03:16:31;19.77;;;6.20;;
18881;SDS011;9573;50.948;11.600;2023-03-12T03:19:00;23.80;;;7.00;;
18881;SDS011;9573;50.948;11.600;2023-03-12T03:21:27;19.53;;;6.83;;
18881;SDS011;9573;50.948;11.600;2023-03-12T03:23:55;22.40;;;6.70;;
18881;SDS011;9573;50.948;11.600;2023-03-12T03:26:23;21.00;;;6.40;;
18881;SDS011;9573;50.948;11.600;2023-03-12T03:28:50;19.83;;;6.07;;
18881;SDS011;9573;50.948;11.600;2023-03-12T03:31:18;19.83;;;5.70;;
18881;SDS011;9573;50.948;11.600;2023-03-12T03:33:46;20.97;;;5.73;;
18881;SDS011;9573;50.948;11.600;2023-03-12T03:36:14;25.53;;;6.40;;
18881;SDS011;9573;50.948;11.600;2023-03-12T03:38:43;17.30;;;5.90;;
18881;SDS011;9573;50.948;11.600;2023-03-12T03:41:13;19.70;;;5.57;;
18881;SDS011;9573;50.948;11.600;2023-03-12T03:43:41;21.60;;;5.97;;
18881;SDS011;9573;50.948;11.600;2023-03-12T03:46:08;18.97;;;5.97;;
18881;SDS011;9573;50.948;11.600;2023-03-12T03:48:37;19.80;;;6.20;;
18881;SDS011;9573;50.948;11.600;2023-03-12T03:51:05;21.17;;;6.07;;
18881;SDS011;9573;50.948;11.600;2023-03-12T03:53:35;18.43;;;5.57;;
18881;SDS011;9573;50.948;11.600;2023-03-12T03:56:06;22.63;;;6.00;;
18881;SDS011;9573;50.948;11.600;2023-03-12T03:58:34;18.23;;;5.33;;
18881;SDS011;9573;50.948;11.600;2023-03-12T04:01:01;16.43;;;5.90;;
18881;SDS011;9573;50.948;11.600;2023-03-12T04:03:28;23.40;;;6.20;;
18881;SDS011;9573;50.948;11.600;2023-03-12T04:05:56;20.37;;;5.80;;
18881;SDS011;9573;50.948;11.600;2023-03-12T04:08:26;17.70;;;5.50;;
18881;SDS011;9573;50.948;11.600;2023-03-12T04:10:55;20.27;;;6.47;;
18881;SDS011;9573;50.948;11.600;2023-03-12T04:13:22;18.23;;;5.80;;
18881;SDS011;9573;50.948;11.600;2023-03-12T04:15:50;21.00;;;5.50;;
18881;SDS011;9573;50.948;11.600;2023-03-12T04:18:18;20.13;;;6.47;;
18881;SDS011;9573;50.948;11.600;2023-03-12T04:20:45;17.70;;;5.33;;
18881;SDS011;9573;50.948;11.600;2023-03-12T04:23:13;20.60;;;6.40;;
18881;SDS011;9573;50.948;11.600;2023-03-12T04:25:40;18.57;;;5.50;;
18881;SDS011;9573;50.948;11.600;2023-03-12T04:28:08;17.97;;;4.50;;
18881;SDS011;9573;50.948;11.600;2023-03-12T04:30:35;17.33;;;4.77;;
18881;SDS011;9573;50.948;11.600;2023-03-12T04:33:03;16.80;;;4.60;;
18881;SDS011;9573;50.948;11.600;2023-03-12T04:35:30;15.50;;;4.30;;
18881;SDS011;9573;50.948;11.600;2023-03-12T04:37:57;12.83;;;4.10;;
18881;SDS011;9573;50.948;11.600;2023-03-12T04:40:27;15.53;;;4.47;;
18881;SDS011;9573;50.948;11.600;2023-03-12T04:42:54;18.30;;;5.17;;
18881;SDS011;9573;50.948;11.600;2023-03-12T04:45:23;14.73;;;4.30;;
18881;SDS011;9573;50.948;11.600;2023-03-12T04:47:50;16.60;;;4.80;;
18881;SDS011;9573;50.948;11.600;2023-03-12T04:50:17;15.93;;;4.97;;
18881;SDS011;9573;50.948;11.600;2023-03-12T04:52:45;17.37;;;5.00;;
18881;SDS011;9573;50.948;11.600;2023-03-12T04:55:12;19.53;;;5.20;;
18881;SDS011;9573;50.948;11.600;2023-03-12T04:57:39;14.87;;;4.50;;
18881;SDS011;9573;50.948;11.600;2023-03-12T05:00:06;19.90;;;5.43;;
18881;SDS011;9573;50.948;11.600;2023-03-12T05:02:38;20.30;;;5.60;;
18881;SDS011;9573;50.948;11.600;2023-03-12T05:05:06;18.50;;;5.70;;
18881;SDS011;9573;50.948;11.600;2023-03-12T05:07:36;16.60;;;5.60;;
18881;SDS011;9573;50.948;11.600;2023-03-12T05:10:03;22.17;;;5.80;;
18881;SDS011;9573;50.948;11.600;2023-03-12T05:12:31;18.93;;;5.53;;
18881;SDS011;9573;50.948;11.600;2023-03-12T05:14:58;18.47;;;5.30;;
18881;SDS011;9573;50.948;11.600;2023-03-12T05:17:25;21.47;;;5.40;;
18881;SDS011;9573;50.948;11.600;2023-03-12T05:19:54;20.33;;;6.07;;
18881;SDS011;9573;50.948;11.600;2023-03-12T05:22:21;20.13;;;5.73;;
18881;SDS011;9573;50.948;11.600;2023-03-12T05:24:48;18.50;;;5.87;;
18881;SDS011;9573;50.948;11.600;2023-03-12T05:27:15;15.03;;;5.10;;
18881;SDS011;9573;50.948;11.600;2023-03-12T05:29:42;18.47;;;5.50;;
18881;SDS011;9573;50.948;11.600;2023-03-12T05:32:09;17.73;;;5.53;;
18881;SDS011;9573;50.948;11.600;2023-03-12T05:34:36;15.73;;;5.60;;
18881;SDS011;9573;50.948;11.600;2023-03-12T05:37:04;15.63;;;4.70;;
18881;SDS011;9573;50.948;11.600;2023-03-12T05:39:32;16.97;;;4.93;;
18881;SDS011;9573;50.948;11.600;2023-03-12T05:41:59;16.47;;;5.20;;
18881;SDS011;9573;50.948;11.600;2023-03-12T05:44:26;19.03;;;5.10;;
18881;SDS011;9573;50.948;11.600;2023-03-12T05:46:53;19.20;;;4.97;;
18881;SDS011;9573;50.948;11.600;2023-03-12T05:49:20;20.07;;;5.33;;
18881;SDS011;9573;50.948;11.600;2023-03-12T05:51:48;17.53;;;5.17;;
18881;SDS011;9573;50.948;11.600;2023-03-12T05:54:17;18.23;;;5.23;;
18881;SDS011;9573;50.948;11.600;2023-03-12T05:56:44;14.33;;;4.70;;
18881;SDS011;9573;50.948;11.600;2023-03-12T05:59:11;15.97;;;4.60;;
18881;SDS011;9573;50.948;11.600;2023-03-12T06:01:38;12.80;;;4.50;;
18881;SDS011;9573;50.948;11.600;2023-03-12T06:04:06;17.70;;;4.77;;
18881;SDS011;9573;50.948;11.600;2023-03-12T06:06:34;15.67;;;5.00;;
18881;SDS011;9573;50.948;11.600;2023-03-12T06:09:02;14.73;;;4.57;;
18881;SDS011;9573;50.948;11.600;2023-03-12T06:11:31;16.63;;;5.57;;
18881;SDS011;9573;50.948;11.600;2023-03-12T06:13:59;14.23;;;5.37;;
18881;SDS011;9573;50.948;11.600;2023-03-12T06:16:27;17.83;;;5.17;;
18881;SDS011;9573;50.948;11.600;2023-03-12T06:18:55;15.53;;;5.07;;
18881;SDS011;9573;50.948;11.600;2023-03-12T06:21:24;24.57;;;5.03;;
18881;SDS011;9573;50.948;11.600;2023-03-12T06:23:54;16.87;;;4.97;;
18881;SDS011;9573;50.948;11.600;2023-03-12T06:26:21;17.80;;;4.73;;
18881;SDS011;9573;50.948;11.600;2023-03-12T06:28:51;19.23;;;5.37;;
18881;SDS011;9573;50.948;11.600;2023-03-12T06:31:19;21.37;;;5.83;;
18881;SDS011;9573;50.948;11.600;2023-03-12T06:33:47;14.67;;;4.50;;
18881;SDS011;9573;50.948;11.600;2023-03-12T06:36:15;17.27;;;5.17;;
18881;SDS011;9573;50.948;11.600;2023-03-12T06:38:42;15.43;;;4.40;;
18881;SDS011;9573;50.948;11.600;2023-03-12T06:41:10;15.93;;;4.50;;
18881;SDS011;9573;50.948;11.600;2023-03-12T06:43:40;18.20;;;5.33;;
18881;SDS011;9573;50.948;11.600;2023-03-12T06:46:11;14.97;;;5.27;;
18881;SDS011;9573;50.948;11.600;2023-03-12T06:48:41;11.17;;;3.80;;
18881;SDS011;9573;50.948;11.600;2023-03-12T06:51:10;14.77;;;5.00;;
18881;SDS011;9573;50.948;11.600;2023-03-12T06:53:40;15.33;;;5.00;;
18881;SDS011;9573;50.948;11.600;2023-03-12T06:56:07;15.30;;;4.60;;
18881;SDS011;9573;50.948;11.600;2023-03-12T06:58:35;13.40;;;4.27;;
18881;SDS011;9573;50.948;11.600;2023-03-12T07:01:02;19.83;;;6.17;;
18881;SDS011;9573;50.948;11.600;2023-03-12T07:03:32;12.87;;;4.23;;
18881;SDS011;9573;50.948;11.600;2023-03-12T07:05:59;13.27;;;4.00;;
18881;SDS011;9573;50.948;11.600;2023-03-12T07:08:27;9.80;;;3.87;;
18881;SDS011;9573;50.948;11.600;2023-03-12T07:10:55;12.60;;;3.57;;
18881;SDS011;9573;50.948;11.600;2023-03-12T07:13:22;11.10;;;3.87;;
18881;SDS011;9573;50.948;11.600;2023-03-12T07:15:49;12.33;;;4.13;;
18881;SDS011;9573;50.948;11.600;2023-03-12T07:18:16;16.43;;;5.87;;
18881;SDS011;9573;50.948;11.600;2023-03-12T07:20:45;13.20;;;4.37;;
18881;SDS011;9573;50.948;11.600;2023-03-12T07:23:12;11.83;;;4.00;;
18881;SDS011;9573;50.948;11.600;2023-03-12T07:25:41;11.23;;;4.10;;
18881;SDS011;9573;50.948;11.600;2023-03-12T07:28:10;12.33;;;4.10;;
18881;SDS011;9573;50.948;11.600;2023-03-12T07:30:37;11.57;;;3.77;;
18881;SDS011;9573;50.948;11.600;2023-03-12T07:33:05;8.77;;;3.60;;
18881;SDS011;9573;50.948;11.600;2023-03-12T07:35:35;12.87;;;4.10;;
18881;SDS011;9573;50.948;11.600;2023-03-12T07:38:05;13.30;;;4.00;;
18881;SDS011;9573;50.948;11.600;2023-03-12T07:40:32;9.50;;;3.67;;
18881;SDS011;9573;50.948;11.600;2023-03-12T07:43:00;11.93;;;3.60;;
18881;SDS011;9573;50.948;11.600;2023-03-12T07:45:29;14.80;;;4.37;;
18881;SDS011;9573;50.948;11.600;2023-03-12T07:47:56;9.73;;;3.40;;
18881;SDS011;9573;50.948;11.600;2023-03-12T07:50:23;11.97;;;3.80;;
18881;SDS011;9573;50.948;11.600;2023-03-12T07:52:53;13.17;;;3.50;;
18881;SDS011;9573;50.948;11.600;2023-03-12T07:55:22;11.17;;;3.60;;
18881;SDS011;9573;50.948;11.600;2023-03-12T07:57:50;11.10;;;3.83;;
18881;SDS011;9573;50.948;11.600;2023-03-12T08:00:17;12.23;;;3.90;;
18881;SDS011;9573;50.948;11.600;2023-03-12T08:02:45;13.73;;;3.80;;
18881;SDS011;9573;50.948;11.600;2023-03-12T08:05:12;12.93;;;3.40;;
18881;SDS011;9573;50.948;11.600;2023-03-12T08:07:39;14.97;;;4.47;;
18881;SDS011;9573;50.948;11.600;2023-03-12T08:10:07;11.40;;;3.57;;
18881;SDS011;9573;50.948;11.600;2023-03-12T08:12:38;13.10;;;3.50;;
18881;SDS011;9573;50.948;11.600;2023-03-12T08:15:06;16.03;;;4.97;;
18881;SDS011;9573;50.948;11.600;2023-03-12T08:17:34;11.20;;;3.53;;
18881;SDS011;9573;50.948;11.600;2023-03-12T08:20:01;11.73;;;3.63;;
18881;SDS011;9573;50.948;11.600;2023-03-12T08:22:29;13.63;;;3.30;;
18881;SDS011;9573;50.948;11.600;2023-03-12T08:24:57;21.23;;;6.77;;
18881;SDS011;9573;50.948;11.600;2023-03-12T08:27:24;15.73;;;5.00;;
18881;SDS011;9573;50.948;11.600;2023-03-12T08:29:52;20.27;;;6.23;;
18881;SDS011;9573;50.948;11.600;2023-03-12T08:32:20;13.10;;;3.87;;
18881;SDS011;9573;50.948;11.600;2023-03-12T08:34:47;11.87;;;4.00;;
18881;SDS011;9573;50.948;11.600;2023-03-12T08:37:14;16.87;;;6.60;;
18881;SDS011;9573;50.948;11.600;2023-03-12T08:39:41;8.03;;;3.23;;
18881;SDS011;9573;50.948;11.600;2023-03-12T08:42:09;11.47;;;3.20;;
18881;SDS011;9573;50.948;11.600;2023-03-12T08:44:36;9.80;;;3.30;;
18881;SDS011;9573;50.948;11.600;2023-03-12T08:47:04;10.60;;;3.60;;
18881;SDS011;9573;50.948;11.600;2023-03-12T08:49:32;12.10;;;3.33;;
18881;SDS011;9573;50.948;11.600;2023-03-12T08:51:59;8.13;;;3.13;;
18881;SDS011;9573;50.948;11.600;2023-03-12T08:54:26;7.57;;;2.70;;
18881;SDS011;9573;50.948;11.600;2023-03-12T08:56:53;11.23;;;3.77;;
18881;SDS011;9573;50.948;11.600;2023-03-12T08:59:20;9.93;;;3.50;;
18881;SDS011;9573;50.948;11.600;2023-03-12T09:01:48;13.97;;;4.77;;
18881;SDS011;9573;50.948;11.600;2023-03-12T09:04:16;12.43;;;3.57;;
18881;SDS011;9573;50.948;11.600;2023-03-12T09:06:43;10.90;;;2.93;;
18881;SDS011;9573;50.948;11.600;2023-03-12T09:09:11;12.37;;;3.83;;
18881;SDS011;9573;50.948;11.600;2023-03-12T09:11:38;7.43;;;2.97;;
18881;SDS011;9573;50.948;11.600;2023-03-12T09:14:06;8.17;;;3.27;;
18881;SDS011;9573;50.948;11.600;2023-03-12T09:16:33;13.93;;;3.67;;
18881;SDS011;9573;50.948;11.600;2023-03-12T09:19:01;10.83;;;3.37;;
18881;SDS011;9573;50.948;11.600;2023-03-12T09:21:29;9.40;;;3.10;;
18881;SDS011;9573;50.948;11.600;2023-03-12T09:23:57;9.73;;;3.00;;
18881;SDS011;9573;50.948;11.600;2023-03-12T09:26:24;10.37;;;3.40;;
18881;SDS011;9573;50.948;11.600;2023-03-12T09:28:51;11.90;;;3.30;;
18881;SDS011;9573;50.948;11.600;2023-03-12T09:31:18;13.83;;;3.20;;
18881;SDS011;9573;50.948;11.600;2023-03-12T09:33:46;11.57;;;3.17;;
18881;SDS011;9573;50.948;11.600;2023-03-12T09:36:13;13.93;;;3.30;;
18881;SDS011;9573;50.948;11.600;2023-03-12T09:38:41;13.70;;;3.70;;
18881;SDS011;9573;50.948;11.600;2023-03-12T09:41:16;10.23;;;3.28;;
18881;SDS011;9573;50.948;11.600;2023-03-12T09:43:47;11.87;;;3.50;;
18881;SDS011;9573;50.948;11.600;2023-03-12T09:46:21;14.63;;;4.07;;
18881;SDS011;9573;50.948;11.600;2023-03-12T09:48:52;9.00;;;3.20;;
18881;SDS011;9573;50.948;11.600;2023-03-12T09:51:26;10.07;;;3.30;;
18881;SDS011;9573;50.948;11.600;2023-03-12T09:53:59;14.80;;;3.20;;
18881;SDS011;9573;50.948;11.600;2023-03-12T09:56:31;9.43;;;3.17;;
18881;SDS011;9573;50.948;11.600;2023-03-12T09:59:00;10.67;;;3.00;;
18881;SDS011;9573;50.948;11.600;2023-03-12T10:01:32;6.43;;;2.93;;
18881;SDS011;9573;50.948;11.600;2023-03-12T10:04:07;9.17;;;3.07;;
18881;SDS011;9573;50.948;11.600;2023-03-12T10:06:47;8.53;;;3.33;;
18881;SDS011;9573;50.948;11.600;2023-03-12T10:09:28;11.43;;;3.47;;
18881;SDS011;9573;50.948;11.600;2023-03-12T10:12:13;10.40;;;3.33;;
18881;SDS011;9573;50.948;11.600;2023-03-12T10:14:50;8.80;;;3.10;;
18881;SDS011;9573;50.948;11.600;2023-03-12T10:17:42;10.63;;;3.30;;
18881;SDS011;9573;50.948;11.600;2023-03-12T10:20:25;8.03;;;3.10;;
18881;SDS011;9573;50.948;11.600;2023-03-12T10:23:20;8.00;;;2.80;;
18881;SDS011;9573;50.948;11.600;2023-03-12T10:25:58;10.87;;;2.90;;
18881;SDS011;9573;50.948;11.600;2023-03-12T10:28:33;11.20;;;3.13;;
18881;SDS011;9573;50.948;11.600;2023-03-12T10:31:05;7.47;;;3.00;;
18881;SDS011;9573;50.948;11.600;2023-03-12T10:33:41;8.93;;;2.97;;
18881;SDS011;9573;50.948;11.600;2023-03-12T10:36:19;9.60;;;3.10;;
18881;SDS011;9573;50.948;11.600;2023-03-12T10:38:50;9.10;;;3.10;;
18881;SDS011;9573;50.948;11.600;2023-03-12T10:41:19;13.53;;;2.90;;
18881;SDS011;9573;50.948;11.600;2023-03-12T10:43:49;8.53;;;2.80;;
18881;SDS011;9573;50.948;11.600;2023-03-12T10:46:33;9.50;;;2.80;;
18881;SDS011;9573;50.948;11.600;2023-03-12T10:49:22;9.30;;;2.83;;
18881;SDS011;9573;50.948;11.600;2023-03-12T10:51:59;7.63;;;2.57;;
18881;SDS011;9573;50.948;11.600;2023-03-12T10:54:33;7.83;;;2.60;;
18881;SDS011;9573;50.948;11.600;2023-03-12T10:57:04;9.73;;;2.60;;
18881;SDS011;9573;50.948;11.600;2023-03-12T10:59:33;7.30;;;2.30;;
18881;SDS011;9573;50.948;11.600;2023-03-12T11:02:11;8.80;;;3.00;;
18881;SDS011;9573;50.948;11.600;2023-03-12T11:04:56;8.47;;;2.73;;
18881;SDS011;9573;50.948;11.600;2023-03-12T11:07:26;7.03;;;2.60;;
18881;SDS011;9573;50.948;11.600;2023-03-12T11:12:53;9.43;;;2.40;;
18881;SDS011;9573;50.948;11.600;2023-03-12T11:15:41;8.63;;;2.70;;
18881;SDS011;9573;50.948;11.600;2023-03-12T11:18:17;10.27;;;2.50;;
18881;SDS011;9573;50.948;11.600;2023-03-12T11:20:49;9.53;;;3.07;;
18881;SDS011;9573;50.948;11.600;2023-03-12T11:23:21;8.13;;;2.50;;
18881;SDS011;9573;50.948;11.600;2023-03-12T11:25:52;6.20;;;2.47;;
18881;SDS011;9573;50.948;11.600;2023-03-12T11:28:27;7.43;;;2.77;;
18881;SDS011;9573;50.948;11.600;2023-03-12T11:31:01;9.10;;;2.40;;
18881;SDS011;9573;50.948;11.600;2023-03-12T11:33:33;7.63;;;2.63;;
18881;SDS011;9573;50.948;11.600;2023-03-12T11:36:04;6.70;;;2.27;;
18881;SDS011;9573;50.948;11.600;2023-03-12T11:38:44;10.30;;;2.50;;
18881;SDS011;9573;50.948;11.600;2023-03-12T11:41:29;10.93;;;2.60;;
18881;SDS011;9573;50.948;11.600;2023-03-12T11:44:19;5.90;;;2.33;;
18881;SDS011;9573;50.948;11.600;2023-03-12T11:47:04;9.90;;;2.37;;
18881;SDS011;9573;50.948;11.600;2023-03-12T11:49:58;11.10;;;2.93;;
18881;SDS011;9573;50.948;11.600;2023-03-12T11:52:48;8.37;;;2.57;;
18881;SDS011;9573;50.948;11.600;2023-03-12T11:55:42;8.00;;;2.60;;
18881;SDS011;9573;50.948;11.600;2023-03-12T11:58:32;6.90;;;2.40;;
18881;SDS011;9573;50.948;11.600;2023-03-12T12:01:17;6.93;;;2.40;;
18881;SDS011;9573;50.948;11.600;2023-03-12T12:07:11;9.40;;;2.47;;
18881;SDS011;9573;50.948;11.600;2023-03-12T12:09:48;9.30;;;2.77;;
18881;SDS011;9573;50.948;11.600;2023-03-12T12:12:34;8.10;;;2.43;;
18881;SDS011;9573;50.948;11.600;2023-03-12T12:15:14;12.40;;;3.00;;
18881;SDS011;9573;50.948;11.600;2023-03-12T12:17:57;9.73;;;2.90;;
18881;SDS011;9573;50.948;11.600;2023-03-12T12:20:38;9.63;;;2.60;;
18881;SDS011;9573;50.948;11.600;2023-03-12T12:23:14;10.37;;;2.77;;
18881;SDS011;9573;50.948;11.600;2023-03-12T12:25:49;9.33;;;2.87;;
18881;SDS011;9573;50.948;11.600;2023-03-12T12:28:33;11.83;;;2.80;;
18881;SDS011;9573;50.948;11.600;2023-03-12T12:31:29;8.90;;;2.90;;
18881;SDS011;9573;50.948;11.600;2023-03-12T12:34:12;10.13;;;2.80;;
18881;SDS011;9573;50.948;11.600;2023-03-12T12:37:30;11.27;;;3.40;;
18881;SDS011;9573;50.948;11.600;2023-03-12T12:40:11;8.17;;;2.53;;
18881;SDS011;9573;50.948;11.600;2023-03-12T12:42:51;10.70;;;2.87;;
18881;SDS011;9573;50.948;11.600;2023-03-12T12:45:32;10.53;;;3.27;;
18881;SDS011;9573;50.948;11.600;2023-03-12T12:48:01;14.10;;;3.17;;
18881;SDS011;9573;50.948;11.600;2023-03-12T12:50:34;11.83;;;3.10;;
18881;SDS011;9573;50.948;11.600;2023-03-12T12:53:09;12.13;;;3.00;;
18881;SDS011;9573;50.948;11.600;2023-03-12T12:55:48;10.20;;;3.17;;
18881;SDS011;9573;50.948;11.600;2023-03-12T12:58:29;10.27;;;3.10;;
18881;SDS011;9573;50.948;11.600;2023-03-12T13:01:12;13.07;;;3.30;;
18881;SDS011;9573;50.948;11.600;2023-03-12T13:03:40;8.37;;;2.80;;
18881;SDS011;9573;50.948;11.600;2023-03-12T13:06:10;11.27;;;2.90;;
18881;SDS011;9573;50.948;11.600;2023-03-12T13:11:42;13.77;;;3.03;;
18881;SDS011;9573;50.948;11.600;2023-03-12T13:14:21;9.50;;;2.53;;
18881;SDS011;9573;50.948;11.600;2023-03-12T13:17:05;9.97;;;2.80;;
18881;SDS011;9573;50.948;11.600;2023-03-12T13:19:45;6.53;;;2.47;;
18881;SDS011;9573;50.948;11.600;2023-03-12T13:22:17;9.03;;;3.07;;
18881;SDS011;9573;50.948;11.600;2023-03-12T13:24:56;9.50;;;2.93;;
18881;SDS011;9573;50.948;11.600;2023-03-12T13:27:36;12.03;;;3.20;;
18881;SDS011;9573;50.948;11.600;2023-03-12T13:33:15;9.07;;;3.30;;
18881;SDS011;9573;50.948;11.600;2023-03-12T13:38:36;13.67;;;3.80;;
18881;SDS011;9573;50.948;11.600;2023-03-12T13:41:06;11.03;;;3.10;;
18881;SDS011;9573;50.948;11.600;2023-03-12T13:49:12;10.03;;;3.20;;
18881;SDS011;9573;50.948;11.600;2023-03-12T13:51:45;20.97;;;7.17;;
18881;SDS011;9573;50.948;11.600;2023-03-12T13:54:24;29.43;;;10.97;;
18881;SDS011;9573;50.948;11.600;2023-03-12T13:56:57;38.43;;;15.00;;
18881;SDS011;9573;50.948;11.600;2023-03-12T13:59:27;34.77;;;13.23;;
18881;SDS011;9573;50.948;11.600;2023-03-12T14:01:58;20.97;;;7.30;;
18881;SDS011;9573;50.948;11.600;2023-03-12T14:04:32;27.60;;;9.63;;
18881;SDS011;9573;50.948;11.600;2023-03-12T14:07:07;20.60;;;6.63;;
18881;SDS011;9573;50.948;11.600;2023-03-12T14:10:15;28.73;;;9.03;;
18881;SDS011;9573;50.948;11.600;2023-03-12T14:13:00;16.50;;;3.63;;
18881;SDS011;9573;50.948;11.600;2023-03-12T14:15:43;9.63;;;2.93;;
18881;SDS011;9573;50.948;11.600;2023-03-12T14:18:19;13.27;;;4.00;;
18881;SDS011;9573;50.948;11.600;2023-03-12T14:20:51;14.13;;;4.83;;
18881;SDS011;9573;50.948;11.600;2023-03-12T14:23:23;9.37;;;2.67;;
18881;SDS011;9573;50.948;11.600;2023-03-12T14:25:56;4.33;;;2.50;;
18881;SDS011;9573;50.948;11.600;2023-03-12T14:28:26;5.73;;;2.40;;
18881;SDS011;9573;50.948;11.600;2023-03-12T14:30:56;8.57;;;2.80;;
18881;SDS011;9573;50.948;11.600;2023-03-12T14:33:28;3.67;;;2.33;;
18881;SDS011;9573;50.948;11.600;2023-03-12T14:36:01;5.23;;;2.30;;
18881;SDS011;9573;50.948;11.600;2023-03-12T14:38:35;6.77;;;2.70;;
18881;SDS011;9573;50.948;11.600;2023-03-12T14:41:08;12.40;;;3.07;;
18881;SDS011;9573;50.948;11.600;2023-03-12T14:43:42;6.83;;;2.77;;
18881;SDS011;9573;50.948;11.600;2023-03-12T14:46:14;6.43;;;2.70;;
18881;SDS011;9573;50.948;11.600;2023-03-12T14:48:45;6.67;;;2.30;;
18881;SDS011;9573;50.948;11.600;2023-03-12T14:51:17;5.07;;;2.47;;
18881;SDS011;9573;50.948;11.600;2023-03-12T14:53:48;11.10;;;2.97;;
18881;SDS011;9573;50.948;11.600;2023-03-12T14:56:22;8.87;;;3.00;;
18881;SDS011;9573;50.948;11.600;2023-03-12T14:58:54;10.50;;;3.10;;
18881;SDS011;9573;50.948;11.600;2023-03-12T15:01:24;6.13;;;2.40;;
18881;SDS011;9573;50.948;11.600;2023-03-12T15:03:56;7.60;;;2.53;;
18881;SDS011;9573;50.948;11.600;2023-03-12T15:06:26;5.57;;;2.33;;
18881;SDS011;9573;50.948;11.600;2023-03-12T15:08:56;7.30;;;2.40;;
18881;SDS011;9573;50.948;11.600;2023-03-12T15:11:30;9.43;;;2.27;;
18881;SDS011;9573;50.948;11.600;2023-03-12T15:14:01;4.83;;;2.20;;
18881;SDS011;9573;50.948;11.600;2023-03-12T15:16:33;2.90;;;1.60;;
18881;SDS011;9573;50.948;11.600;2023-03-12T15:19:01;8.63;;;2.20;;
18881;SDS011;9573;50.948;11.600;2023-03-12T15:21:30;3.90;;;1.80;;